Time;durP1;ratioP1;P1;durP2;ratioP2;P2;SDS_P1;SDS_P2;PMS_P1;PMS_P2;Temp;Humidity;BMP_temperature;BMP_pressure;BME280_temperature;BME280_humidity;BME280_pressure;Samples;Min_cycle;Max_cycle;Signal;HPM_P1;HPM_P2
2022/07/29 00:02:15;;;;;;;12.52;8.85;;;;;;;16.57;89.22;93859.84;4977155;28;20074;-63
2022/07/29 00:04:42;;;;;;;11.40;8.15;;;;;;;16.59;88.63;93860.16;4989438;28;20174;-63
2022/07/29 00:07:09;;;;;;;7.50;6.00;;;;;;;16.56;87.87;93867.41;4974422;28;20054;-66
2022/07/29 00:09:37;;;;;;;7.32;5.57;;;;;;;16.49;87.29;93867.66;4983369;28;20047;-63
2022/07/29 00:12:18;;;;;;;7.47;5.60;;;;;;;16.44;87.43;93857.19;4977133;28;20407;-63
2022/07/29 00:14:55;;;;;;;8.23;5.15;;;;;;;16.40;87.39;93859.31;4993245;28;20042;-65
2022/07/29 00:17:25;;;;;;;7.75;5.15;;;;;;;16.45;87.20;93869.78;4974013;28;20042;-66
2022/07/29 00:19:52;;;;;;;8.67;6.20;;;;;;;16.44;87.44;93862.72;4973351;28;20393;-63
2022/07/29 00:22:19;;;;;;;7.75;6.00;;;;;;;16.44;87.58;93859.97;4973288;28;20055;-64
2022/07/29 00:24:49;;;;;;;9.73;7.35;;;;;;;16.25;89.12;93852.78;4973199;28;20126;-64
2022/07/29 00:27:17;;;;;;;10.45;7.30;;;;;;;16.27;89.04;93859.41;4973085;28;20049;-63
2022/07/29 00:29:44;;;;;;;10.48;7.45;;;;;;;16.20;89.41;93848.59;4973411;28;20046;-62
2022/07/29 00:32:11;;;;;;;8.10;6.50;;;;;;;16.13;89.95;93843.34;4973263;28;20042;-64
2022/07/29 00:37:22;;;;;;;8.85;6.47;;;;;;;16.31;89.24;93839.88;4981836;28;20057;-65
2022/07/29 00:39:50;;;;;;;8.68;6.25;;;;;;;16.32;88.77;93836.66;4971554;28;20121;-64
2022/07/29 00:42:16;;;;;;;8.30;6.22;;;;;;;16.40;88.32;93830.84;4971896;28;20057;-66
2022/07/29 00:44:43;;;;;;;9.43;6.40;;;;;;;16.33;88.85;93840.19;4972751;28;20046;-63
2022/07/29 00:47:11;;;;;;;9.32;6.70;;;;;;;16.31;88.87;93839.88;4972889;28;20041;-62
2022/07/29 00:49:40;;;;;;;9.63;7.07;;;;;;;16.24;89.01;93824.31;4986541;28;20060;-63
2022/07/29 00:52:09;;;;;;;9.90;6.85;;;;;;;16.12;89.64;93827.97;4973240;28;20038;-63
2022/07/29 00:54:37;;;;;;;9.38;6.72;;;;;;;16.10;90.10;93824.88;4972969;28;20049;-63
2022/07/29 00:57:11;;;;;;;8.87;6.67;;;;;;;16.09;90.24;93829.63;4977976;28;20043;-63
2022/07/29 00:59:38;;;;;;;8.55;6.80;;;;;;;16.04;90.73;93832.22;4981727;28;20047;-64
2022/07/29 01:02:04;;;;;;;11.65;8.60;;;;;;;16.08;90.53;93824.56;4978204;28;20120;-67
2022/07/29 01:04:32;;;;;;;12.75;8.77;;;;;;;16.13;90.16;93824.72;4985195;28;20062;-64
2022/07/29 01:07:01;;;;;;;8.75;6.53;;;;;;;16.20;89.51;93817.34;4973128;28;20488;-65
2022/07/29 01:09:29;;;;;;;12.77;7.80;;;;;;;16.09;89.40;93817.78;4971295;28;20043;-63
2022/07/29 01:12:13;;;;;;;11.68;7.60;;;;;;;16.08;89.75;93817.03;4991937;28;20048;-62
2022/07/29 01:14:40;;;;;;;12.38;7.85;;;;;;;16.05;89.80;93812.38;4990955;28;20438;-62
2022/07/29 01:17:13;;;;;;;10.57;7.13;;;;;;;16.07;89.87;93807.16;4976930;28;20038;-73
2022/07/29 01:19:59;;;;;;;9.15;6.68;;;;;;;16.12;89.80;93811.34;4985440;28;20072;-68
2022/07/29 01:22:49;;;;;;;13.33;7.30;;;;;;;16.12;89.47;93814.13;4984119;28;20061;-63
2022/07/29 01:25:45;;;;;;;9.68;6.65;;;;;;;16.07;89.46;93807.16;4979433;28;20806;-65
2022/07/29 01:28:34;;;;;;;9.77;7.50;;;;;;;15.88;90.49;93803.53;4990578;28;21447;-64
2022/07/29 01:31:05;;;;;;;10.70;7.63;;;;;;;15.81;91.21;93803.78;4994197;28;20116;-65
2022/07/29 01:33:50;;;;;;;11.73;8.35;;;;;;;15.71;91.80;93805.69;4992867;28;20068;-63
2022/07/29 01:36:28;;;;;;;10.77;7.83;;;;;;;15.69;91.79;93805.38;4991351;28;20050;-62
2022/07/29 01:39:14;;;;;;;11.13;8.07;;;;;;;15.76;91.59;93796.09;4995719;28;20912;-64
2022/07/29 01:41:50;;;;;;;12.10;7.60;;;;;;;15.73;91.79;93800.50;4991240;28;20421;-62
2022/07/29 01:44:26;;;;;;;11.43;7.80;;;;;;;15.67;92.10;93790.44;4982753;28;20049;-66
2022/07/29 01:46:57;;;;;;;11.35;8.10;;;;;;;15.66;92.42;93794.47;4977508;28;20898;-63
2022/07/29 01:49:28;;;;;;;10.97;8.43;;;;;;;15.56;92.74;93788.84;4972012;28;20049;-64
2022/07/29 01:52:10;;;;;;;12.43;7.85;;;;;;;15.54;92.71;93783.00;4982222;28;20069;-63
2022/07/29 01:54:45;;;;;;;11.48;7.82;;;;;;;15.51;92.91;93791.44;4986468;28;20510;-68
2022/07/29 01:57:17;;;;;;;12.15;7.60;;;;;;;15.53;92.91;93788.97;4971776;28;20050;-63
2022/07/29 01:59:46;;;;;;;10.60;7.72;;;;;;;15.53;92.69;93786.22;4971424;28;20042;-64
2022/07/29 02:02:16;;;;;;;12.77;8.33;;;;;;;15.49;92.93;93786.38;4978057;28;20122;-64
2022/07/29 02:04:48;;;;;;;12.25;8.30;;;;;;;15.37;93.63;93787.97;4989496;28;20051;-68
2022/07/29 02:07:19;;;;;;;13.98;8.57;;;;;;;15.27;94.42;93783.59;4978639;28;20050;-64
2022/07/29 02:09:49;;;;;;;13.13;8.77;;;;;;;15.25;94.53;93783.28;4976280;28;20050;-68
2022/07/29 02:12:18;;;;;;;12.45;8.73;;;;;;;15.21;94.76;93779.84;4971490;28;20049;-67
2022/07/29 02:14:48;;;;;;;14.67;9.93;;;;;;;15.27;95.15;93778.06;4971434;28;20495;-64
2022/07/29 02:17:22;;;;;;;17.88;10.07;;;;;;;15.25;95.32;93783.28;4973674;28;20058;-68
2022/07/29 02:19:50;;;;;;;21.70;10.43;;;;;;;15.17;95.85;93782.75;4988710;28;20038;-63
2022/07/29 02:22:19;;;;;;;18.48;10.35;;;;;;;15.28;95.64;93787.13;4971349;28;20039;-63
2022/07/29 02:24:49;;;;;;;16.45;10.43;;;;;;;15.26;96.11;93787.56;4971111;28;20049;-68
2022/07/29 02:27:17;;;;;;;18.17;11.20;;;;;;;15.20;96.64;93791.38;4970769;28;20054;-67
2022/07/29 02:29:47;;;;;;;19.63;11.38;;;;;;;15.10;97.98;93784.97;4970524;28;20050;-66
2022/07/29 02:32:15;;;;;;;18.15;11.45;;;;;;;15.10;98.43;93787.75;4984562;28;20065;-66
2022/07/29 02:34:44;;;;;;;19.00;12.02;;;;;;;15.11;98.58;93780.97;4976081;28;20053;-65
2022/07/29 02:37:12;;;;;;;23.73;11.95;;;;;;;15.04;99.20;93782.00;4971373;28;20049;-67
2022/07/29 02:39:41;;;;;;;19.60;11.60;;;;;;;15.08;99.41;93784.66;4974541;28;20109;-65
2022/07/29 02:42:17;;;;;;;18.85;11.15;;;;;;;15.15;99.40;93779.66;4991354;28;20042;-67
2022/07/29 02:44:43;;;;;;;29.83;11.10;;;;;;;15.14;98.87;93786.41;4987033;28;20049;-62
2022/07/29 02:47:15;;;;;;;28.83;11.40;;;;;;;15.06;99.38;93776.81;4990654;28;20541;-62
2022/07/29 02:50:02;;;;;;;18.27;11.10;;;;;;;15.09;100.00;93781.44;4990262;28;20050;-64
2022/07/29 02:52:37;;;;;;;20.17;12.03;;;;;;;15.16;99.78;93780.44;4970662;28;20053;-63
2022/07/29 02:55:19;;;;;;;29.02;12.07;;;;;;;15.16;99.82;93783.19;4981367;28;20479;-62
2022/07/29 02:58:01;;;;;;;22.05;11.50;;;;;;;15.28;99.33;93781.59;4977871;28;20046;-67
2022/07/29 03:00:31;;;;;;;21.42;10.93;;;;;;;15.33;98.80;93786.53;4975080;28;20047;-63
2022/07/29 03:03:03;;;;;;;23.83;12.52;;;;;;;15.34;98.75;93788.09;4982882;28;20177;-63
2022/07/29 03:05:31;;;;;;;28.00;11.50;;;;;;;15.37;98.58;93785.19;4975952;28;20046;-62
2022/07/29 03:08:02;;;;;;;23.42;11.48;;;;;;;15.17;99.17;93802.09;4988140;28;20049;-65
2022/07/29 03:10:30;;;;;;;24.48;11.73;;;;;;;15.18;98.95;93795.34;4978126;28;20455;-63
2022/07/29 03:12:59;;;;;;;22.30;11.23;;;;;;;15.11;99.59;93792.84;4970846;28;20439;-67
2022/07/29 03:15:27;;;;;;;31.98;16.63;;;;;;;15.20;99.83;93794.88;4982421;28;20045;-65
2022/07/29 03:17:55;;;;;;;31.47;12.50;;;;;;;15.25;99.49;93794.34;4971473;28;20765;-64
2022/07/29 03:20:22;;;;;;;26.42;11.32;;;;;;;15.32;98.59;93794.06;4970793;28;20077;-65
2022/07/29 03:22:49;;;;;;;19.92;10.77;;;;;;;15.27;98.87;93791.88;4970403;28;20039;-67
2022/07/29 03:25:18;;;;;;;23.80;11.48;;;;;;;15.30;98.23;93792.97;4970582;28;20039;-62
2022/07/29 03:27:46;;;;;;;28.95;11.30;;;;;;;15.34;97.97;93797.16;4971411;28;20047;-66
2022/07/29 03:30:15;;;;;;;49.40;11.90;;;;;;;15.21;98.71;93787.38;4984853;28;20411;-66
2022/07/29 03:32:49;;;;;;;31.35;12.23;;;;;;;15.20;99.39;93783.84;4983041;28;20045;-62
2022/07/29 03:35:19;;;;;;;26.52;12.60;;;;;;;15.18;99.58;93784.28;4987131;28;20121;-65
2022/07/29 03:37:46;;;;;;;23.88;11.82;;;;;;;15.30;99.19;93790.22;4980136;28;20053;-62
2022/07/29 03:40:19;;;;;;;21.15;12.10;;;;;;;15.31;98.53;93784.25;4978360;28;20061;-66
2022/07/29 03:42:48;;;;;;;18.57;10.60;;;;;;;15.21;97.79;93788.13;4992397;28;20050;-63
2022/07/29 03:45:18;;;;;;;17.60;9.85;;;;;;;15.13;97.69;93787.63;4990243;28;20065;-67
2022/07/29 03:47:59;;;;;;;17.83;10.55;;;;;;;15.24;97.56;93794.78;4989219;28;20046;-62
2022/07/29 03:50:28;;;;;;;19.55;10.07;;;;;;;15.27;96.87;93800.19;4987801;28;20454;-62
2022/07/29 03:52:55;;;;;;;29.25;11.70;;;;;;;15.28;97.00;93801.72;4973331;28;21398;-62
2022/07/29 03:55:23;;;;;;;31.87;11.10;;;;;;;15.31;97.10;93800.81;4987485;28;20046;-62
2022/07/29 03:57:52;;;;;;;20.50;11.40;;;;;;;15.42;96.71;93797.66;4982219;28;20043;-62
2022/07/29 04:00:19;;;;;;;25.88;12.52;;;;;;;15.47;96.70;93786.00;4978284;28;20057;-62
2022/07/29 04:02:48;;;;;;;20.90;11.50;;;;;;;15.58;96.03;93780.13;4984605;28;20104;-63
2022/07/29 04:05:16;;;;;;;24.92;12.18;;;;;;;15.54;95.68;93785.00;4980406;28;20204;-62
2022/07/29 04:07:46;;;;;;;26.40;11.80;;;;;;;15.57;95.29;93782.13;4973546;28;20349;-65
2022/07/29 04:10:15;;;;;;;23.33;12.00;;;;;;;15.59;95.40;93787.19;4974292;28;20035;-62
2022/07/29 04:12:42;;;;;;;24.13;12.23;;;;;;;15.62;94.99;93788.28;4973420;28;20554;-62
2022/07/29 04:15:09;;;;;;;24.30;11.95;;;;;;;15.69;95.02;93786.00;4984917;28;20049;-63
2022/07/29 04:17:36;;;;;;;21.50;11.40;;;;;;;15.79;93.94;93795.16;4975581;28;20431;-67
2022/07/29 04:20:04;;;;;;;24.17;12.67;;;;;;;15.87;93.55;93790.13;4973813;28;20061;-63
2022/07/29 04:22:31;;;;;;;24.10;12.27;;;;;;;15.86;92.80;93800.44;4984809;28;20051;-63
2022/07/29 04:24:57;;;;;;;26.27;12.35;;;;;;;15.64;93.98;93796.91;4973663;28;20488;-68
2022/07/29 04:27:29;;;;;;;25.25;12.15;;;;;;;15.47;95.14;93801.84;4972772;28;20610;-66
2022/07/29 04:29:56;;;;;;;23.52;12.10;;;;;;;15.50;96.13;93807.25;4973522;28;21638;-68
2022/07/29 04:32:24;;;;;;;26.43;13.37;;;;;;;15.61;95.45;93803.31;4973215;28;20051;-68
2022/07/29 04:34:51;;;;;;;27.20;12.98;;;;;;;15.52;94.88;93807.56;4988016;28;20145;-63
2022/07/29 04:37:18;;;;;;;26.48;14.25;;;;;;;15.57;95.13;93798.72;4987470;28;20046;-62
2022/07/29 04:39:44;;;;;;;28.45;14.88;;;;;;;15.68;94.53;93805.84;4972927;28;20054;-63
2022/07/29 04:42:11;;;;;;;28.33;14.02;;;;;;;15.73;94.18;93796.97;4972897;28;20046;-64
2022/07/29 04:44:39;;;;;;;26.13;13.90;;;;;;;15.61;94.37;93795.78;4972623;28;20877;-63
2022/07/29 04:47:08;;;;;;;29.13;13.80;;;;;;;15.47;95.67;93812.91;4973036;28;20069;-63
2022/07/29 04:49:38;;;;;;;29.90;14.55;;;;;;;15.41;95.90;93809.94;4985469;28;20053;-65
2022/07/29 04:52:06;;;;;;;29.10;14.70;;;;;;;15.48;96.00;93809.69;4986538;28;20047;-66
2022/07/29 04:54:33;;;;;;;25.20;13.82;;;;;;;15.58;95.08;93814.06;4971772;28;20050;-63
2022/07/29 04:57:00;;;;;;;26.03;13.60;;;;;;;15.66;94.75;93820.13;4972978;28;20045;-66
2022/07/29 04:59:26;;;;;;;21.88;12.30;;;;;;;15.76;93.70;93810.69;4972906;28;20043;-63
2022/07/29 05:01:53;;;;;;;21.42;12.15;;;;;;;15.79;93.66;93817.31;4975780;28;20609;-63
2022/07/29 05:04:20;;;;;;;19.52;11.68;;;;;;;15.93;92.36;93810.47;4983518;28;20113;-71
2022/07/29 05:06:47;;;;;;;18.52;11.20;;;;;;;15.97;92.71;93817.41;4975261;28;20073;-63
2022/07/29 05:09:14;;;;;;;16.37;10.43;;;;;;;16.07;91.38;93812.69;4990867;28;20486;-64
2022/07/29 05:11:41;;;;;;;16.67;10.73;;;;;;;16.07;90.70;93818.22;4972002;28;20137;-62
2022/07/29 05:14:07;;;;;;;14.68;9.63;;;;;;;16.12;90.87;93809.34;4972458;28;20043;-67
2022/07/29 05:16:34;;;;;;;14.80;9.60;;;;;;;16.01;90.77;93803.44;4971738;28;20049;-62
2022/07/29 05:19:01;;;;;;;15.63;10.00;;;;;;;15.90;92.20;93811.38;4972622;28;20045;-63
2022/07/29 05:21:28;;;;;;;14.97;9.23;;;;;;;15.90;92.31;93812.16;4971550;28;20148;-61
2022/07/29 05:23:55;;;;;;;15.13;9.80;;;;;;;15.99;91.94;93814.19;4972103;28;20042;-63
2022/07/29 05:26:22;;;;;;;15.57;9.90;;;;;;;16.37;90.85;93813.91;4971969;28;20047;-72
2022/07/29 05:28:48;;;;;;;15.13;9.35;;;;;;;16.56;89.18;93825.06;4972093;28;20051;-63
2022/07/29 05:31:15;;;;;;;12.70;8.35;;;;;;;16.91;87.40;93811.78;4972431;28;20047;-63
2022/07/29 05:33:42;;;;;;;12.00;8.30;;;;;;;16.91;86.79;93822.09;4975614;28;20758;-67
2022/07/29 05:36:09;;;;;;;12.30;8.20;;;;;;;16.88;86.83;93815.50;4985097;28;20047;-64
2022/07/29 05:38:36;;;;;;;12.93;9.05;;;;;;;16.94;85.79;93812.84;4988651;28;20042;-64
2022/07/29 05:41:06;;;;;;;12.32;8.30;;;;;;;16.86;85.86;93812.41;4990916;28;20054;-63
2022/07/29 05:43:33;;;;;;;11.80;7.95;;;;;;;17.36;84.91;93809.50;4990008;28;20068;-67
2022/07/29 05:46:00;;;;;;;11.83;7.73;;;;;;;17.54;83.10;93811.50;4990697;28;20039;-64
2022/07/29 05:48:27;;;;;;;11.77;7.90;;;;;;;17.84;81.51;93815.34;4990434;28;20498;-62
2022/07/29 05:50:54;;;;;;;10.02;7.43;;;;;;;17.67;82.55;93814.91;4990193;28;20685;-62
2022/07/29 05:53:21;;;;;;;10.35;7.65;;;;;;;20.04;73.18;93809.03;4985061;28;20495;-65
2022/07/29 05:55:48;;;;;;;9.07;7.00;;;;;;;22.42;63.78;93813.69;4970725;28;20050;-68
2022/07/29 05:58:15;;;;;;;8.70;7.23;;;;;;;23.16;60.72;93803.00;4971625;28;20051;-65
2022/07/29 06:00:42;;;;;;;9.57;6.50;;;;;;;25.90;52.35;93809.28;4978031;28;20043;-65
2022/07/29 06:03:09;;;;;;;8.30;7.00;;;;;;;25.93;50.99;93810.28;4988848;28;20096;-68
2022/07/29 06:05:36;;;;;;;8.52;6.22;;;;;;;26.05;50.35;93805.38;4990405;28;20042;-66
2022/07/29 06:08:05;;;;;;;8.85;6.35;;;;;;;24.81;53.22;93811.31;4987801;28;20046;-65
2022/07/29 06:10:32;;;;;;;8.10;6.47;;;;;;;24.66;54.60;93817.22;4990145;28;20043;-65
2022/07/29 06:12:59;;;;;;;9.43;7.10;;;;;;;24.23;55.47;93818.19;4982923;28;20125;-68
2022/07/29 06:15:26;;;;;;;8.57;7.25;;;;;;;24.98;53.34;93808.50;4977015;28;20679;-66
2022/07/29 06:17:52;;;;;;;10.05;6.60;;;;;;;25.36;52.88;93812.53;4979698;28;20432;-65
2022/07/29 06:20:26;;;;;;;8.35;6.93;;;;;;;24.71;54.07;93822.06;4975094;28;20085;-70
2022/07/29 06:22:53;;;;;;;8.17;5.80;;;;;;;26.39;50.61;93824.84;4980396;28;20089;-68
2022/07/29 06:25:20;;;;;;;7.30;5.97;;;;;;;28.33;44.95;93820.31;4971438;28;20105;-67
2022/07/29 06:27:46;;;;;;;8.45;5.57;;;;;;;27.99;45.69;93821.56;4970434;28;20054;-65
2022/07/29 06:30:13;;;;;;;7.07;5.90;;;;;;;29.20;42.78;93817.19;4971462;28;20447;-68
2022/07/29 06:32:40;;;;;;;6.60;5.10;;;;;;;27.91;45.73;93814.22;4970531;28;20511;-63
2022/07/29 06:35:09;;;;;;;9.33;5.30;;;;;;;26.59;48.12;93818.06;4986552;28;20034;-63
2022/07/29 06:37:56;;;;;;;6.20;5.13;;;;;;;28.10;45.68;93814.97;4979204;28;20415;-64
2022/07/29 06:43:11;;;;;;;5.80;4.70;;;;;;;26.80;47.37;93824.03;4970424;28;20328;-64
2022/07/29 06:45:40;;;;;;;6.65;4.72;;;;;;;25.68;51.03;93826.22;4970632;28;20043;-64
2022/07/29 06:48:09;;;;;;;9.90;5.30;;;;;;;25.08;52.70;93833.00;4971435;28;20045;-64
2022/07/29 06:50:36;;;;;;;8.35;5.70;;;;;;;23.72;55.81;93826.44;4970577;28;20046;-64
2022/07/29 06:53:03;;;;;;;8.38;5.88;;;;;;;23.26;58.15;93826.72;4971344;28;20043;-63
2022/07/29 06:55:30;;;;;;;8.60;6.05;;;;;;;22.89;59.15;93830.31;4970348;28;20073;-66
2022/07/29 06:57:57;;;;;;;8.43;5.07;;;;;;;23.05;58.67;93831.72;4969941;28;20041;-65
2022/07/29 07:00:25;;;;;;;8.00;5.83;;;;;;;22.87;59.92;93827.25;4970885;28;20090;-65
2022/07/29 07:02:51;;;;;;;8.65;5.60;;;;;;;23.38;58.38;93833.16;4982077;28;20064;-66
2022/07/29 07:05:18;;;;;;;7.15;5.43;;;;;;;22.89;59.38;93842.25;4989590;28;20042;-65
2022/07/29 07:07:45;;;;;;;7.93;5.85;;;;;;;22.18;62.27;93841.91;4986729;28;20046;-64
2022/07/29 07:10:12;;;;;;;7.90;6.18;;;;;;;21.75;64.57;93838.91;4979868;28;20043;-66
2022/07/29 07:12:38;;;;;;;8.37;5.93;;;;;;;21.87;64.01;93845.38;4979980;28;20057;-65
2022/07/29 07:15:06;;;;;;;8.20;6.20;;;;;;;22.07;63.50;93848.16;4976010;28;20429;-65
2022/07/29 07:17:32;;;;;;;8.48;5.97;;;;;;;21.65;64.74;93862.66;4973008;28;20073;-64
2022/07/29 07:19:59;;;;;;;9.65;6.38;;;;;;;21.14;66.43;93859.94;4975066;28;20039;-65
2022/07/29 07:22:26;;;;;;;11.35;7.03;;;;;;;20.78;68.78;93858.41;4988088;28;20075;-65
2022/07/29 07:24:52;;;;;;;8.97;6.17;;;;;;;20.55;69.78;93849.66;4974066;28;20038;-65
2022/07/29 07:27:19;;;;;;;9.93;7.00;;;;;;;20.88;68.34;93848.66;4974337;28;20043;-64
2022/07/29 07:29:46;;;;;;;9.48;6.80;;;;;;;21.61;66.16;93854.50;4974375;28;20480;-64
2022/07/29 07:32:13;;;;;;;9.52;6.32;;;;;;;21.85;65.38;93848.69;4974564;28;20047;-64
2022/07/29 07:34:40;;;;;;;10.88;6.50;;;;;;;22.21;64.04;93856.91;4984617;28;20480;-64
2022/07/29 07:37:06;;;;;;;8.30;5.97;;;;;;;23.00;62.44;93863.97;4985372;28;20591;-64
2022/07/29 07:39:33;;;;;;;10.02;6.82;;;;;;;22.63;62.37;93856.31;4986588;28;20046;-64
2022/07/29 07:42:00;;;;;;;11.18;7.00;;;;;;;21.76;65.74;93873.19;4974470;28;20433;-64
2022/07/29 07:44:27;;;;;;;9.85;6.93;;;;;;;21.31;67.77;93870.59;4990381;28;20114;-64
2022/07/29 07:46:53;;;;;;;9.80;7.00;;;;;;;21.07;68.81;93871.53;4983050;28;20399;-65
2022/07/29 07:49:21;;;;;;;11.70;6.10;;;;;;;21.20;68.94;93873.97;4974305;28;20053;-67
2022/07/29 07:51:47;;;;;;;8.60;6.18;;;;;;;21.11;70.25;93869.28;4994619;28;20069;-65
2022/07/29 07:54:16;;;;;;;8.98;6.30;;;;;;;21.52;68.76;93872.16;4974242;28;20085;-67
2022/07/29 07:56:48;;;;;;;9.18;6.35;;;;;;;21.96;67.68;93875.22;4973251;28;20289;-66
2022/07/29 07:59:19;;;;;;;8.63;6.05;;;;;;;21.11;69.33;93872.09;4982575;28;20150;-67
2022/07/29 08:01:45;;;;;;;8.97;6.20;;;;;;;21.04;69.99;93878.06;4980245;28;20047;-65
2022/07/29 08:04:21;;;;;;;7.75;6.00;;;;;;;20.99;70.24;93883.56;4986415;28;20076;-65
2022/07/29 08:06:55;;;;;;;9.13;6.28;;;;;;;20.77;70.35;93884.75;4992473;28;21047;-65
2022/07/29 08:09:23;;;;;;;9.25;6.38;;;;;;;21.01;70.59;93876.25;4991863;28;20077;-67
2022/07/29 08:11:57;;;;;;;7.90;6.10;;;;;;;21.01;69.77;93887.41;4996890;28;20883;-67
2022/07/29 08:14:24;;;;;;;7.10;5.50;;;;;;;21.48;67.98;93887.56;4990245;28;20050;-64
2022/07/29 08:16:51;;;;;;;8.82;5.72;;;;;;;21.28;67.94;93885.50;4977077;28;20101;-67
2022/07/29 08:19:18;;;;;;;7.30;5.72;;;;;;;20.86;69.66;93895.78;4987297;28;20392;-65
2022/07/29 08:21:45;;;;;;;8.23;5.70;;;;;;;20.46;71.66;93885.22;4973410;28;20043;-65
2022/07/29 08:26:58;;;;;;;9.43;5.60;;;;;;;20.40;71.23;93901.84;4980559;28;20609;-64
2022/07/29 08:29:24;;;;;;;7.30;5.65;;;;;;;20.05;72.23;93905.28;4976960;28;20057;-65
2022/07/29 08:31:51;;;;;;;8.00;5.90;;;;;;;20.28;72.03;93897.31;4978292;28;20042;-66
2022/07/29 08:34:18;;;;;;;7.40;5.70;;;;;;;20.59;71.52;93905.25;4989896;28;20419;-64
2022/07/29 08:36:53;;;;;;;8.07;5.78;;;;;;;20.74;70.93;93905.25;4989406;28;20049;-64
2022/07/29 08:39:19;;;;;;;8.17;5.57;;;;;;;20.69;70.80;93903.91;4973588;28;20059;-64
2022/07/29 08:41:47;;;;;;;8.35;5.60;;;;;;;20.76;71.06;93905.53;4972550;28;20051;-67
2022/07/29 08:44:23;;;;;;;7.97;5.50;;;;;;;20.81;69.70;93912.47;4983992;28;20046;-64
2022/07/29 08:46:56;;;;;;;7.80;5.50;;;;;;;20.88;70.33;93918.38;4974437;28;20333;-64
2022/07/29 08:49:23;;;;;;;8.35;6.00;;;;;;;21.13;69.24;93917.00;4973217;28;20051;-64
2022/07/29 08:51:51;;;;;;;8.73;5.70;;;;;;;20.69;71.44;93926.22;4972650;28;20069;-65
2022/07/29 08:54:18;;;;;;;7.45;5.72;;;;;;;20.57;71.21;93929.28;4973146;28;20059;-64
2022/07/29 08:56:49;;;;;;;8.25;5.78;;;;;;;20.64;71.39;93931.69;4972191;28;20043;-65
2022/07/29 08:59:20;;;;;;;7.97;5.82;;;;;;;20.46;71.54;93918.69;4973323;28;20043;-65
2022/07/29 09:01:52;;;;;;;8.10;5.47;;;;;;;20.45;71.52;93923.50;4975404;28;20057;-68
2022/07/29 09:04:20;;;;;;;7.47;5.27;;;;;;;20.37;71.58;93924.34;4985929;28;20043;-64
2022/07/29 09:06:51;;;;;;;8.40;5.47;;;;;;;20.53;71.50;93926.66;4972204;28;20089;-65
2022/07/29 09:09:17;;;;;;;6.63;5.18;;;;;;;20.51;71.43;93921.56;4972792;28;20404;-67
2022/07/29 09:11:44;;;;;;;6.57;5.07;;;;;;;20.44;71.85;93927.50;4972195;28;20035;-65
2022/07/29 09:14:13;;;;;;;8.95;5.35;;;;;;;20.29;73.03;93929.53;4972772;28;20064;-67
2022/07/29 09:16:56;;;;;;;7.93;5.40;;;;;;;20.22;72.76;93930.69;4972324;28;20042;-67
2022/07/29 09:19:33;;;;;;;7.82;5.10;;;;;;;20.18;72.25;93916.16;4986375;28;20393;-64
2022/07/29 09:22:02;;;;;;;7.75;5.18;;;;;;;20.43;70.17;93920.41;4971394;28;20062;-65
2022/07/29 09:24:47;;;;;;;6.88;5.20;;;;;;;20.46;70.47;93911.06;4971744;28;20407;-63
2022/07/29 09:27:22;;;;;;;7.45;5.20;;;;;;;20.51;70.06;93918.78;4972300;28;20050;-65
2022/07/29 09:30:10;;;;;;;9.40;5.50;;;;;;;20.77;72.22;93920.25;4971789;28;20046;-66
2022/07/29 09:32:58;;;;;;;7.13;5.25;;;;;;;21.29;71.10;93910.16;4985178;28;20130;-69
2022/07/29 09:35:25;;;;;;;8.38;5.30;;;;;;;21.88;69.11;93916.78;4989237;28;20099;-68
2022/07/29 09:37:52;;;;;;;7.97;5.22;;;;;;;22.23;66.81;93908.25;4975574;28;20049;-65
2022/07/29 09:40:25;;;;;;;7.00;5.07;;;;;;;22.19;65.00;93912.53;4978642;28;20042;-65
2022/07/29 09:42:55;;;;;;;9.40;4.70;;;;;;;21.84;66.37;93914.19;4977541;28;20385;-65
2022/07/29 09:45:32;;;;;;;6.72;4.90;;;;;;;21.68;68.30;93909.16;4972121;28;20393;-65
2022/07/29 09:48:13;;;;;;;6.72;4.82;;;;;;;21.62;66.36;93903.50;4970868;28;21841;-65
2022/07/29 09:50:43;;;;;;;8.20;4.82;;;;;;;21.26;68.56;93919.47;4971398;28;20050;-66
2022/07/29 09:53:11;;;;;;;6.55;4.65;;;;;;;20.97;68.16;93923.13;4983745;28;20088;-65
2022/07/29 09:55:51;;;;;;;8.73;5.10;;;;;;;20.75;70.51;93929.84;4991475;28;20057;-65
2022/07/29 09:58:22;;;;;;;8.32;5.18;;;;;;;20.50;70.95;93922.03;4985445;28;20049;-67
2022/07/29 10:00:50;;;;;;;7.13;5.00;;;;;;;20.61;72.16;93929.88;4973041;28;20062;-65
2022/07/29 10:03:17;;;;;;;7.43;4.53;;;;;;;20.84;67.88;93917.81;4991036;28;20068;-66
2022/07/29 10:05:45;;;;;;;6.80;4.70;;;;;;;21.23;66.46;93909.28;4976239;28;20459;-65
2022/07/29 10:08:12;;;;;;;7.37;4.73;;;;;;;21.72;64.83;93912.50;4971615;28;20043;-67
2022/07/29 10:10:43;;;;;;;4.90;4.00;;;;;;;22.19;62.30;93912.53;4983493;28;20410;-66
2022/07/29 10:13:14;;;;;;;6.32;4.60;;;;;;;22.74;61.07;93909.56;4972245;28;20047;-66
2022/07/29 10:15:44;;;;;;;8.63;4.18;;;;;;;23.28;58.93;93911.00;4970963;28;20062;-65
2022/07/29 10:18:13;;;;;;;8.20;4.40;;;;;;;24.11;56.18;93901.50;4971710;28;20038;-65
2022/07/29 10:20:41;;;;;;;7.33;4.00;;;;;;;25.02;54.16;93899.63;4970910;28;20042;-65
2022/07/29 10:23:09;;;;;;;7.80;4.10;;;;;;;25.44;51.09;93897.81;4971486;28;20050;-65
2022/07/29 10:25:35;;;;;;;5.70;3.90;;;;;;;26.75;48.80;93898.81;4970999;28;20053;-66
2022/07/29 10:28:02;;;;;;;7.15;4.00;;;;;;;26.68;49.27;93896.56;4983200;28;20048;-67
2022/07/29 10:30:30;;;;;;;5.45;3.90;;;;;;;27.62;45.93;93901.16;4970843;28;20043;-67
2022/07/29 10:33:25;;;;;;;6.43;4.10;;;;;;;28.36;43.44;93890.56;4971360;28;20070;-66
2022/07/29 10:36:01;;;;;;;6.90;3.70;;;;;;;29.31;41.81;93886.88;4970699;28;20042;-67
2022/07/29 10:38:41;;;;;;;5.40;4.03;;;;;;;27.83;43.02;93887.34;4982144;28;20069;-67
2022/07/29 10:41:32;;;;;;;5.18;3.53;;;;;;;28.16;42.40;93882.63;4988282;28;20408;-66
2022/07/29 10:44:17;;;;;;;5.85;4.40;;;;;;;27.05;46.66;93887.56;4970265;28;20355;-66
2022/07/29 10:46:50;;;;;;;5.30;4.40;;;;;;;28.13;44.53;93867.53;4970743;28;20046;-65
2022/07/29 10:49:17;;;;;;;5.90;4.50;;;;;;;27.20;45.62;93872.34;4971260;28;20530;-66
2022/07/29 10:51:50;;;;;;;5.22;4.07;;;;;;;27.98;44.96;93861.56;4969808;28;20051;-66
2022/07/29 10:54:17;;;;;;;5.85;3.85;;;;;;;29.08;41.99;93853.31;4989401;28;20054;-64
2022/07/29 10:56:46;;;;;;;5.47;4.15;;;;;;;28.56;43.24;93866.72;4986532;28;20060;-64
2022/07/29 10:59:19;;;;;;;7.73;4.27;;;;;;;27.91;44.22;93859.34;4976056;28;20069;-64
2022/07/29 11:01:49;;;;;;;5.60;4.13;;;;;;;27.08;44.58;93861.19;4984841;28;20052;-64
2022/07/29 11:04:44;;;;;;;8.10;4.40;;;;;;;26.71;45.92;93861.75;4971157;28;20073;-67
2022/07/29 11:07:12;;;;;;;6.05;3.88;;;;;;;26.82;42.47;93863.69;4984276;28;20602;-64
2022/07/29 11:09:40;;;;;;;5.32;3.90;;;;;;;26.09;45.04;93856.47;4979788;28;20403;-64
2022/07/29 11:12:37;;;;;;;5.40;3.90;;;;;;;25.38;46.50;93854.94;4975139;28;20051;-64
2022/07/29 11:15:07;;;;;;;6.25;4.20;;;;;;;25.68;46.37;93857.91;4969854;28;21506;-64
2022/07/29 11:17:53;;;;;;;5.00;3.97;;;;;;;25.22;47.30;93852.91;4970482;28;20046;-64
2022/07/29 11:20:47;;;;;;;5.25;4.18;;;;;;;24.68;48.33;93853.94;4971039;28;20049;-64
2022/07/29 11:23:23;;;;;;;6.47;4.30;;;;;;;24.74;49.86;93859.56;4970127;28;20046;-64
2022/07/29 11:26:27;;;;;;;5.10;3.90;;;;;;;24.82;47.76;93849.34;4970246;28;20046;-65
2022/07/29 11:29:03;;;;;;;6.88;4.10;;;;;;;24.71;47.98;93850.91;4969464;28;20141;-64
2022/07/29 11:31:45;;;;;;;5.85;4.20;;;;;;;24.32;48.14;93843.16;4970319;28;20050;-62
2022/07/29 11:34:17;;;;;;;6.35;4.43;;;;;;;23.24;50.64;93844.06;4978603;28;20104;-63
2022/07/29 11:37:12;;;;;;;5.75;4.30;;;;;;;25.52;47.62;93839.06;4988191;28;20100;-65
2022/07/29 11:39:46;;;;;;;7.33;4.20;;;;;;;26.02;45.98;93840.16;4966349;28;20055;-64
2022/07/29 11:42:16;;;;;;;5.95;3.80;;;;;;;26.30;43.04;93837.94;4970529;28;20053;-65
2022/07/29 11:45:06;;;;;;;4.90;4.00;;;;;;;26.64;41.93;93848.22;4969398;28;21608;-65
2022/07/29 11:47:57;;;;;;;5.63;3.70;;;;;;;27.85;40.53;93848.13;4970159;28;20047;-64
2022/07/29 11:50:44;;;;;;;6.38;3.78;;;;;;;28.44;37.75;93837.84;4969977;28;20055;-68
2022/07/29 11:53:14;;;;;;;5.80;3.67;;;;;;;28.72;37.82;93838.75;4970775;28;20105;-65